Time;durP1;ratioP1;P1;durP2;ratioP2;P2;SDS_P1;SDS_P2;PMS_P1;PMS_P2;Temp;Humidity;BMP_temperature;BMP_pressure;BME280_temperature;BME280_humidity;BME280_pressure;Samples;Min_cycle;Max_cycle;Signal;HPM_P1;HPM_P2
2022/08/25 00:00:34;;;;;;;11.88;4.28;;;20.50;99.90;;;;;;5066876;28;20029;-81
2022/08/25 00:02:59;;;;;;;10.57;4.15;;;20.50;99.90;;;;;;5071789;28;20286;-79
2022/08/25 00:05:27;;;;;;;11.95;3.80;;;20.40;99.90;;;;;;5070683;28;20033;-81
2022/08/25 00:07:52;;;;;;;12.80;4.45;;;20.40;99.90;;;;;;5064996;28;20043;-82
2022/08/25 00:10:19;;;;;;;10.32;3.80;;;20.40;99.90;;;;;;5081295;28;20016;-82
2022/08/25 00:12:45;;;;;;;9.25;4.05;;;20.30;99.90;;;;;;5083694;28;20036;-82
2022/08/25 00:15:10;;;;;;;9.77;3.15;;;20.30;99.90;;;;;;5084560;28;20758;-81
2022/08/25 00:17:36;;;;;;;16.45;3.75;;;20.20;99.90;;;;;;5071711;28;20093;-82
2022/08/25 00:20:04;;;;;;;13.10;5.03;;;20.20;99.90;;;;;;5062587;28;20028;-81
2022/08/25 00:22:29;;;;;;;10.20;3.22;;;20.20;99.90;;;;;;5062872;28;20439;-81
2022/08/25 00:24:55;;;;;;;17.08;4.40;;;20.10;99.90;;;;;;5062516;28;20539;-82
2022/08/25 00:27:21;;;;;;;14.40;3.80;;;20.10;99.90;;;;;;5063940;28;20028;-81
2022/08/25 00:29:46;;;;;;;11.90;3.67;;;20.10;99.90;;;;;;5063982;28;20020;-82
2022/08/25 00:32:12;;;;;;;15.35;4.20;;;20.10;99.90;;;;;;5062332;28;20044;-81
2022/08/25 00:34:38;;;;;;;21.08;3.30;;;20.00;99.90;;;;;;5063490;28;20016;-81
2022/08/25 00:37:06;;;;;;;9.07;3.08;;;19.90;99.90;;;;;;5061688;28;20528;-80
2022/08/25 00:39:32;;;;;;;17.65;3.67;;;19.90;99.90;;;;;;5062928;28;20032;-81
2022/08/25 00:41:58;;;;;;;12.18;3.08;;;19.90;99.90;;;;;;5063567;28;20020;-82
2022/08/25 00:44:27;;;;;;;7.93;2.88;;;19.90;99.90;;;;;;5062735;28;20032;-80
2022/08/25 00:46:56;;;;;;;12.63;3.22;;;19.90;99.90;;;;;;5063797;28;20127;-81
2022/08/25 00:49:42;;;;;;;13.50;3.58;;;19.80;99.90;;;;;;5063883;28;20029;-81
2022/08/25 00:52:15;;;;;;;12.10;3.83;;;19.80;99.90;;;;;;5067091;28;20392;-81
2022/08/25 00:54:46;;;;;;;9.70;3.22;;;19.80;99.90;;;;;;5067279;28;20031;-81
2022/08/25 00:57:15;;;;;;;7.30;3.22;;;19.70;99.90;;;;;;5065429;28;20032;-81
2022/08/25 00:59:42;;;;;;;8.15;2.78;;;19.70;99.90;;;;;;5066113;28;20025;-81
2022/08/25 01:02:08;;;;;;;5.40;3.25;;;19.60;99.90;;;;;;5081156;28;20038;-81
2022/08/25 01:04:34;;;;;;;7.35;2.67;;;19.70;99.90;;;;;;5086107;28;20088;-81
2022/08/25 01:07:00;;;;;;;17.42;3.25;;;19.60;99.90;;;;;;5089938;28;20024;-81
2022/08/25 01:09:30;;;;;;;10.13;2.70;;;19.60;99.90;;;;;;5080905;28;20032;-81
2022/08/25 01:11:56;;;;;;;12.82;3.60;;;19.60;99.90;;;;;;5070168;28;20017;-80
2022/08/25 01:14:23;;;;;;;11.82;3.17;;;19.50;99.90;;;;;;5070545;28;20024;-82
2022/08/25 01:16:49;;;;;;;9.73;3.35;;;19.50;99.90;;;;;;5069978;28;20032;-82
2022/08/25 01:19:15;;;;;;;13.93;3.22;;;19.50;99.90;;;;;;5070909;28;20453;-81
2022/08/25 01:21:48;;;;;;;10.93;3.30;;;19.40;99.90;;;;;;5069175;28;20032;-82
2022/08/25 01:24:37;;;;;;;7.93;3.47;;;19.40;99.90;;;;;;5069498;28;20109;-81
2022/08/25 01:27:04;;;;;;;7.78;2.83;;;19.40;99.90;;;;;;5069962;28;20024;-82
2022/08/25 01:29:30;;;;;;;9.93;3.13;;;19.40;99.90;;;;;;5070664;28;20021;-81
2022/08/25 01:32:03;;;;;;;9.77;3.00;;;19.40;99.90;;;;;;5070785;28;20646;-81
2022/08/25 01:34:33;;;;;;;9.13;3.78;;;19.40;99.90;;;;;;5069801;28;20021;-82
2022/08/25 01:36:59;;;;;;;13.77;2.92;;;19.40;99.90;;;;;;5069840;28;20079;-80
2022/08/25 01:39:27;;;;;;;12.95;3.40;;;19.40;99.90;;;;;;5069528;28;20040;-81
2022/08/25 01:42:03;;;;;;;13.70;3.58;;;19.40;99.90;;;;;;5069325;28;20035;-81
2022/08/25 01:44:30;;;;;;;16.48;3.55;;;19.40;99.90;;;;;;5068205;28;20063;-81
2022/08/25 01:46:55;;;;;;;14.73;4.10;;;19.40;99.90;;;;;;5067875;28;20404;-81
2022/08/25 01:49:21;;;;;;;10.18;3.00;;;19.30;99.90;;;;;;5070265;28;20081;-82
2022/08/25 01:51:52;;;;;;;15.55;2.95;;;19.30;99.90;;;;;;5070191;28;20025;-82
2022/08/25 01:54:18;;;;;;;11.00;2.70;;;19.30;99.90;;;;;;5070005;28;20085;-81
2022/08/25 01:56:44;;;;;;;12.23;2.83;;;19.20;99.90;;;;;;5069915;28;20043;-81
2022/08/25 01:59:09;;;;;;;13.30;3.97;;;19.20;99.90;;;;;;5069414;28;20743;-80
2022/08/25 02:01:35;;;;;;;21.80;3.08;;;19.20;99.90;;;;;;5068977;28;20024;-81
2022/08/25 02:04:01;;;;;;;18.40;3.72;;;19.20;99.90;;;;;;5068967;28;20024;-81
2022/08/25 02:06:31;;;;;;;10.38;3.20;;;19.20;99.90;;;;;;5068446;28;20109;-81
2022/08/25 02:09:00;;;;;;;15.45;3.60;;;19.20;99.90;;;;;;5068492;28;20052;-81
2022/08/25 02:11:27;;;;;;;11.13;2.80;;;19.20;99.90;;;;;;5069097;28;20182;-80
2022/08/25 02:13:53;;;;;;;8.15;3.40;;;19.20;99.90;;;;;;5068955;28;20037;-81
2022/08/25 02:16:24;;;;;;;11.13;3.10;;;19.10;99.90;;;;;;5068708;28;20048;-81
2022/08/25 02:18:50;;;;;;;13.60;4.78;;;19.10;99.90;;;;;;5070018;28;20162;-83
2022/08/25 02:21:15;;;;;;;12.32;3.33;;;19.10;99.90;;;;;;5069692;28;20107;-82
2022/08/25 02:23:42;;;;;;;12.65;3.45;;;19.10;99.90;;;;;;5068572;28;20033;-82
2022/08/25 02:26:08;;;;;;;14.50;3.03;;;19.10;99.90;;;;;;5067978;28;20027;-81
2022/08/25 02:28:36;;;;;;;15.60;2.90;;;19.10;99.90;;;;;;5069557;28;20700;-82
2022/08/25 02:31:05;;;;;;;11.57;3.53;;;19.10;99.90;;;;;;5067679;28;20044;-82
2022/08/25 02:33:31;;;;;;;8.63;2.78;;;19.10;99.90;;;;;;5067888;28;20473;-81
2022/08/25 02:35:58;;;;;;;17.40;3.40;;;19.10;99.90;;;;;;5067736;28;20500;-82
2022/08/25 02:38:24;;;;;;;13.15;3.90;;;19.00;99.90;;;;;;5068521;28;20032;-82
2022/08/25 02:40:51;;;;;;;8.90;3.10;;;19.00;99.90;;;;;;5068896;28;20359;-82
2022/08/25 02:43:16;;;;;;;11.00;3.58;;;19.00;99.90;;;;;;5067692;28;20626;-82
2022/08/25 02:45:42;;;;;;;10.98;2.67;;;19.00;99.90;;;;;;5068349;28;20112;-82
2022/08/25 02:48:07;;;;;;;9.70;2.83;;;18.90;99.90;;;;;;5069328;28;20178;-82
2022/08/25 02:50:33;;;;;;;10.80;3.40;;;18.90;99.90;;;;;;5068022;28;20020;-81
2022/08/25 02:52:59;;;;;;;20.85;3.15;;;18.80;99.90;;;;;;5067680;28;20507;-82
2022/08/25 02:55:24;;;;;;;13.10;3.90;;;18.80;99.90;;;;;;5068140;28;20036;-82
2022/08/25 02:57:50;;;;;;;19.15;2.88;;;18.80;99.90;;;;;;5067378;28;20370;-82
2022/08/25 03:00:16;;;;;;;9.68;3.72;;;18.90;99.90;;;;;;5069286;28;20017;-82
2022/08/25 03:02:43;;;;;;;12.57;3.40;;;18.90;99.90;;;;;;5068493;28;20043;-82
2022/08/25 03:05:10;;;;;;;9.93;3.30;;;19.00;99.90;;;;;;5066865;28;20028;-82
2022/08/25 03:07:37;;;;;;;6.95;2.58;;;18.90;99.90;;;;;;5067666;28;20066;-82
2022/08/25 03:10:15;;;;;;;11.05;2.90;;;19.00;99.90;;;;;;5067266;28;20025;-82
2022/08/25 03:12:41;;;;;;;8.93;2.88;;;18.90;99.90;;;;;;5083369;28;20028;-82
2022/08/25 03:15:10;;;;;;;10.60;2.97;;;18.90;99.90;;;;;;5088956;28;20515;-83
2022/08/25 03:17:36;;;;;;;7.38;2.95;;;18.80;99.90;;;;;;5088952;28;20054;-80
2022/08/25 03:20:04;;;;;;;12.18;3.72;;;18.80;99.90;;;;;;5088552;28;20402;-81
2022/08/25 03:22:30;;;;;;;12.60;3.50;;;18.80;99.90;;;;;;5067615;28;20424;-82
2022/08/25 03:26:52;;;;;;;13.52;3.42;;;18.80;99.90;;;;;;5068490;28;20029;-81
2022/08/25 03:27:41;;;;;;;11.75;4.05;;;18.80;99.90;;;;;;5068023;28;20033;-82
2022/08/25 03:30:08;;;;;;;9.32;3.35;;;18.70;99.90;;;;;;5066980;28;20033;-83
2022/08/25 03:32:33;;;;;;;15.23;3.28;;;18.70;99.90;;;;;;5066946;28;20075;-83
2022/08/25 03:35:00;;;;;;;10.02;3.75;;;18.70;99.90;;;;;;5068176;28;20112;-83
2022/08/25 03:37:26;;;;;;;14.18;3.00;;;18.70;99.90;;;;;;5067350;28;20081;-82
2022/08/25 03:39:52;;;;;;;7.05;2.63;;;18.70;99.90;;;;;;5066772;28;20025;-80
2022/08/25 03:42:18;;;;;;;7.68;2.85;;;18.70;99.90;;;;;;5066661;28;20070;-82
2022/08/25 03:44:44;;;;;;;14.13;4.50;;;18.70;99.90;;;;;;5066999;28;20057;-82
2022/08/25 03:47:10;;;;;;;10.23;3.63;;;18.70;99.90;;;;;;5066336;28;20029;-81
2022/08/25 03:49:35;;;;;;;9.88;3.20;;;18.70;99.90;;;;;;5067746;28;20043;-82
2022/08/25 03:52:02;;;;;;;13.55;4.32;;;18.70;99.90;;;;;;5068133;28;20489;-81
2022/08/25 03:54:27;;;;;;;7.85;3.47;;;18.70;99.90;;;;;;5069010;28;20356;-81
2022/08/25 03:56:54;;;;;;;10.23;3.28;;;18.70;99.90;;;;;;5083040;28;20278;-82
2022/08/25 03:59:20;;;;;;;19.92;3.97;;;18.70;99.90;;;;;;5083353;28;20023;-83
2022/08/25 04:01:46;;;;;;;16.80;3.97;;;18.70;99.90;;;;;;5073470;28;20037;-82
2022/08/25 04:04:13;;;;;;;7.95;3.50;;;18.70;99.90;;;;;;5069091;28;20024;-81
2022/08/25 04:06:39;;;;;;;10.10;3.67;;;18.70;99.90;;;;;;5068719;28;20063;-83
2022/08/25 04:09:06;;;;;;;14.27;3.97;;;18.70;99.90;;;;;;5066141;28;20032;-83
2022/08/25 04:11:31;;;;;;;14.27;3.50;;;18.70;99.90;;;;;;5066853;28;20032;-82
2022/08/25 04:14:00;;;;;;;21.95;4.35;;;18.70;99.90;;;;;;5066652;28;20139;-83
2022/08/25 04:16:32;;;;;;;6.45;3.38;;;18.80;99.90;;;;;;5067595;28;20044;-82
2022/08/25 04:19:00;;;;;;;10.05;2.92;;;18.80;99.90;;;;;;5065809;28;20032;-82
2022/08/25 04:21:27;;;;;;;14.25;3.63;;;18.80;99.90;;;;;;5066318;28;20085;-83
2022/08/25 04:23:54;;;;;;;17.13;4.30;;;18.90;99.90;;;;;;5066493;28;20095;-82
2022/08/25 04:26:31;;;;;;;12.63;3.90;;;18.90;99.90;;;;;;5066020;28;20029;-82
2022/08/25 04:28:58;;;;;;;9.18;3.13;;;19.00;99.90;;;;;;5066107;28;20021;-81
2022/08/25 04:31:25;;;;;;;14.65;2.95;;;19.10;99.90;;;;;;5065478;28;20513;-82
2022/08/25 04:33:50;;;;;;;11.02;2.97;;;19.10;99.90;;;;;;5066425;28;20411;-82
2022/08/25 04:36:17;;;;;;;6.55;3.00;;;19.20;99.90;;;;;;5065509;28;20042;-83
2022/08/25 04:38:44;;;;;;;13.07;3.25;;;19.30;99.90;;;;;;5067734;28;20069;-82
2022/08/25 04:41:12;;;;;;;6.72;2.80;;;19.40;99.90;;;;;;5065430;28;20560;-82
2022/08/25 04:43:39;;;;;;;9.63;3.63;;;19.50;99.90;;;;;;5067382;28;20421;-82
2022/08/25 04:46:08;;;;;;;11.25;3.33;;;19.50;99.90;;;;;;5066193;28;20037;-82
2022/08/25 04:48:33;;;;;;;7.93;3.20;;;19.60;99.90;;;;;;5065328;28;20017;-83
2022/08/25 04:51:05;;;;;;;9.40;3.70;;;19.70;99.90;;;;;;5065061;28;20031;-83
2022/08/25 04:53:32;;;;;;;11.70;3.83;;;19.80;99.90;;;;;;5065155;28;20112;-83
2022/08/25 04:55:58;;;;;;;18.17;3.58;;;20.00;99.90;;;;;;5067353;28;20039;-81
2022/08/25 04:58:24;;;;;;;13.30;4.60;;;20.20;99.90;;;;;;5065200;28;20032;-79
2022/08/25 05:00:50;;;;;;;8.43;3.22;;;20.40;99.90;;;;;;5065192;28;20035;-80
2022/08/25 05:03:16;;;;;;;16.42;3.90;;;20.50;99.90;;;;;;5065887;28;20157;-80
2022/08/25 05:05:41;;;;;;;18.05;4.57;;;20.70;99.90;;;;;;5066811;28;20072;-81
2022/08/25 05:08:07;;;;;;;12.68;2.88;;;20.80;99.90;;;;;;5065410;28;20025;-81
2022/08/25 05:10:33;;;;;;;9.07;3.15;;;21.10;99.90;;;;;;5064815;28;20028;-80
2022/08/25 05:12:58;;;;;;;12.07;2.70;;;21.30;99.90;;;;;;5066374;28;20104;-81
2022/08/25 05:18:12;;;;;;;8.02;3.15;;;22.10;99.90;;;;;;5066325;28;20551;-80
2022/08/25 05:20:38;;;;;;;8.32;2.65;;;22.30;99.90;;;;;;5064084;28;20028;-81
2022/08/25 05:23:04;;;;;;;8.93;2.60;;;22.50;99.90;;;;;;5066192;28;20020;-81
2022/08/25 05:25:30;;;;;;;12.85;2.88;;;22.60;99.90;;;;;;5066043;28;20041;-81
2022/08/25 05:27:56;;;;;;;8.38;3.25;;;22.80;99.90;;;;;;5064535;28;20493;-81
2022/08/25 05:30:22;;;;;;;8.73;2.92;;;23.00;99.90;;;;;;5066116;28;20473;-81
2022/08/25 05:32:47;;;;;;;13.63;3.20;;;23.20;99.90;;;;;;5064467;28;20064;-81
2022/08/25 05:35:14;;;;;;;5.78;2.30;;;23.50;99.90;;;;;;5064712;28;20025;-81
2022/08/25 05:37:40;;;;;;;18.98;3.88;;;23.80;99.90;;;;;;5064947;28;20489;-81
2022/08/25 05:40:07;;;;;;;9.15;2.95;;;24.10;99.90;;;;;;5066101;28;20032;-82
2022/08/25 05:42:34;;;;;;;8.45;2.90;;;24.40;99.90;;;;;;5064198;28;20558;-82
2022/08/25 05:45:00;;;;;;;15.75;2.92;;;24.70;99.90;;;;;;5064965;28;20031;-81
2022/08/25 05:47:25;;;;;;;10.05;3.33;;;25.00;99.90;;;;;;5063790;28;20028;-81
2022/08/25 05:49:51;;;;;;;6.97;2.17;;;25.40;99.90;;;;;;5063912;28;20089;-80
2022/08/25 05:52:17;;;;;;;14.93;2.88;;;25.70;99.90;;;;;;5068097;28;20020;-82
2022/08/25 05:54:42;;;;;;;10.27;2.78;;;26.10;99.90;;;;;;5069556;28;20036;-82
2022/08/25 05:57:08;;;;;;;11.23;2.95;;;26.50;99.90;;;;;;5067538;28;20459;-81
2022/08/25 05:59:34;;;;;;;13.63;2.55;;;26.70;99.90;;;;;;5068223;28;20111;-81
2022/08/25 06:04:44;;;;;;;16.95;2.70;;;27.50;99.90;;;;;;5089785;28;20077;-82
2022/08/25 06:07:10;;;;;;;9.93;2.65;;;28.10;99.90;;;;;;5088825;28;20489;-84
2022/08/25 06:09:38;;;;;;;10.00;2.63;;;28.50;99.90;;;;;;5085758;28;20586;-84
2022/08/25 06:12:04;;;;;;;6.53;1.83;;;28.90;99.90;;;;;;5078209;28;20032;-84
2022/08/25 06:14:30;;;;;;;17.92;3.05;;;29.20;99.90;;;;;;5068855;28;20036;-83
2022/08/25 06:16:56;;;;;;;15.95;2.28;;;29.60;99.90;;;;;;5066995;28;20036;-83
2022/08/25 06:19:22;;;;;;;11.43;2.30;;;30.00;99.90;;;;;;5068787;28;20028;-80
2022/08/25 06:21:48;;;;;;;15.45;2.45;;;30.30;99.90;;;;;;5067668;28;20036;-78
2022/08/25 06:24:14;;;;;;;12.10;2.58;;;30.80;99.90;;;;;;5067881;28;20090;-81
2022/08/25 06:26:39;;;;;;;9.30;1.98;;;31.20;98.70;;;;;;5069390;28;20033;-81
2022/08/25 06:29:05;;;;;;;6.03;1.92;;;31.40;96.60;;;;;;5067523;28;20123;-81
2022/08/25 06:31:31;;;;;;;8.60;2.10;;;31.80;95.40;;;;;;5067430;28;20186;-81
2022/08/25 06:33:57;;;;;;;6.72;1.92;;;32.10;94.70;;;;;;5067461;28;20033;-79
2022/08/25 06:36:23;;;;;;;9.43;2.10;;;32.40;94.10;;;;;;5067303;28;20040;-81
2022/08/25 06:38:49;;;;;;;8.15;1.67;;;32.50;93.40;;;;;;5068135;28;20024;-80
2022/08/25 06:41:15;;;;;;;18.58;2.80;;;32.70;92.00;;;;;;5067414;28;20115;-81
2022/08/25 06:43:41;;;;;;;13.68;2.78;;;32.90;90.90;;;;;;5068305;28;20030;-81
2022/08/25 06:46:16;;;;;;;15.32;2.90;;;32.90;90.70;;;;;;5067713;28;20043;-82
2022/08/25 06:48:43;;;;;;;8.57;1.80;;;32.90;90.30;;;;;;5068837;28;20021;-81
2022/08/25 06:51:12;;;;;;;6.95;1.70;;;33.00;90.50;;;;;;5066766;28;20070;-82
2022/08/25 06:53:38;;;;;;;8.88;2.83;;;33.30;88.70;;;;;;5068175;28;20025;-81
2022/08/25 06:56:05;;;;;;;12.13;2.60;;;33.60;87.80;;;;;;5068344;28;20036;-81
2022/08/25 06:58:32;;;;;;;6.38;2.30;;;33.70;86.30;;;;;;5067644;28;20093;-81
2022/08/25 07:01:11;;;;;;;11.88;2.75;;;33.90;84.80;;;;;;5066081;28;20051;-82
2022/08/25 07:03:37;;;;;;;12.55;2.58;;;34.20;82.60;;;;;;5066434;28;20511;-80
2022/08/25 07:06:04;;;;;;;10.10;2.15;;;34.20;83.30;;;;;;5067983;28;20032;-80
2022/08/25 07:08:29;;;;;;;11.82;2.30;;;34.50;82.30;;;;;;5066878;28;20027;-82
2022/08/25 07:10:55;;;;;;;11.68;2.55;;;34.60;82.00;;;;;;5066498;28;20025;-81
2022/08/25 07:13:21;;;;;;;10.35;2.78;;;34.80;80.70;;;;;;5066807;28;20480;-81
2022/08/25 07:15:46;;;;;;;10.57;2.70;;;34.80;79.30;;;;;;5069767;28;20218;-81
2022/08/25 07:18:12;;;;;;;12.35;2.75;;;34.50;78.10;;;;;;5066049;28;20200;-81
2022/08/25 07:20:39;;;;;;;10.55;2.63;;;34.70;79.90;;;;;;5068398;28;20028;-82
2022/08/25 07:23:06;;;;;;;23.95;4.07;;;35.10;77.90;;;;;;5067774;28;20498;-81
2022/08/25 07:25:32;;;;;;;22.30;3.85;;;35.20;75.80;;;;;;5066570;28;20035;-82
2022/08/25 07:27:58;;;;;;;21.50;4.47;;;35.20;75.60;;;;;;5066739;28;20443;-82
2022/08/25 07:30:24;;;;;;;16.40;3.08;;;34.90;78.30;;;;;;5067434;28;20021;-81
2022/08/25 07:32:50;;;;;;;13.88;3.03;;;35.40;75.80;;;;;;5067379;28;20104;-82
2022/08/25 07:35:16;;;;;;;17.55;3.35;;;35.80;74.60;;;;;;5066576;28;20845;-82
2022/08/25 07:37:48;;;;;;;19.20;3.03;;;36.20;72.80;;;;;;5066020;28;20042;-81
2022/08/25 07:40:18;;;;;;;15.85;3.72;;;36.50;70.40;;;;;;5066611;28;20025;-81
2022/08/25 07:42:44;;;;;;;13.55;3.30;;;36.60;69.20;;;;;;5066607;28;20539;-81
2022/08/25 07:45:11;;;;;;;15.75;3.70;;;36.70;70.20;;;;;;5065466;28;20017;-81
2022/08/25 07:47:38;;;;;;;22.13;3.78;;;36.70;70.10;;;;;;5066728;28;20382;-82
2022/08/25 07:50:06;;;;;;;21.23;4.10;;;37.00;68.20;;;;;;5083855;28;20025;-81
2022/08/25 07:52:32;;;;;;;19.48;3.75;;;36.70;68.20;;;;;;5080098;28;20619;-80
2022/08/25 07:54:58;;;;;;;22.88;4.75;;;37.00;68.40;;;;;;5077214;28;20146;-80
2022/08/25 07:57:25;;;;;;;17.02;3.72;;;37.40;66.80;;;;;;5075388;28;20316;-80
2022/08/25 07:59:51;;;;;;;17.05;3.40;;;37.30;66.60;;;;;;5067286;28;20020;-81
2022/08/25 08:02:17;;;;;;;22.10;3.40;;;37.20;65.30;;;;;;5066465;28;20497;-81
2022/08/25 08:04:44;;;;;;;18.20;3.38;;;37.00;65.20;;;;;;5065947;28;20025;-80
2022/08/25 08:07:10;;;;;;;12.65;3.35;;;37.40;64.70;;;;;;5066940;28;20021;-81
2022/08/25 08:09:36;;;;;;;19.77;2.92;;;37.70;63.40;;;;;;5065910;28;20297;-81
2022/08/25 08:12:04;;;;;;;14.57;3.10;;;37.80;63.70;;;;;;5065554;28;20508;-80
2022/08/25 08:14:29;;;;;;;19.50;5.00;;;38.10;63.10;;;;;;5065199;28;20028;-81
2022/08/25 08:16:56;;;;;;;17.02;4.07;;;38.30;62.50;;;;;;5064873;28;20132;-80
2022/08/25 08:19:22;;;;;;;28.80;3.78;;;38.30;61.90;;;;;;5067036;28;20524;-79
2022/08/25 08:21:48;;;;;;;17.15;3.80;;;38.30;61.30;;;;;;5066994;28;20025;-80
2022/08/25 08:24:14;;;;;;;19.55;3.88;;;38.10;62.30;;;;;;5065173;28;20398;-80
2022/08/25 08:26:39;;;;;;;21.45;3.67;;;38.10;62.40;;;;;;5066250;28;20036;-80
2022/08/25 08:29:05;;;;;;;16.17;4.10;;;38.20;62.40;;;;;;5066487;28;20112;-80
2022/08/25 08:31:31;;;;;;;14.95;3.85;;;38.10;60.70;;;;;;5065088;28;20091;-80
2022/08/25 08:33:57;;;;;;;13.38;3.33;;;38.00;61.00;;;;;;5067035;28;20024;-81
2022/08/25 08:36:23;;;;;;;16.40;3.55;;;38.20;63.50;;;;;;5065986;28;20058;-83
2022/08/25 08:38:48;;;;;;;15.65;3.47;;;38.40;61.80;;;;;;5065930;28;20753;-83
2022/08/25 08:44:58;;;;;;;13.13;3.50;;;38.40;60.40;;;;;;5066671;28;20571;-81
2022/08/25 08:47:40;;;;;;;13.63;3.05;;;38.20;61.10;;;;;;5064957;28;20020;-80
2022/08/25 08:50:37;;;;;;;14.05;3.05;;;38.20;61.80;;;;;;5066676;28;20477;-80
2022/08/25 08:53:36;;;;;;;12.10;3.33;;;38.10;61.00;;;;;;5065133;28;20021;-81
2022/08/25 08:56:07;;;;;;;17.95;3.30;;;38.20;60.90;;;;;;5050136;28;20044;-81
2022/08/25 08:58:50;;;;;;;12.93;3.40;;;38.10;61.20;;;;;;5066138;28;20055;-80
2022/08/25 09:01:45;;;;;;;17.75;4.05;;;38.00;62.00;;;;;;5065932;28;20044;-81
2022/08/25 09:04:30;;;;;;;26.52;3.97;;;38.10;61.00;;;;;;5064454;28;20557;-79
2022/08/25 09:06:58;;;;;;;20.02;4.05;;;38.20;61.40;;;;;;5064966;28;20046;-80
2022/08/25 09:09:31;;;;;;;19.25;3.60;;;38.30;59.70;;;;;;5064683;28;20036;-81
2022/08/25 09:12:18;;;;;;;17.52;5.20;;;38.50;60.10;;;;;;5065366;28;20024;-80
2022/08/25 09:14:50;;;;;;;19.92;4.68;;;38.20;60.50;;;;;;5066116;28;20024;-81
2022/08/25 09:17:27;;;;;;;15.80;3.47;;;38.40;60.80;;;;;;5064380;28;20036;-82
2022/08/25 09:20:13;;;;;;;20.15;3.40;;;38.60;58.50;;;;;;5065461;28;20070;-82
2022/08/25 09:22:59;;;;;;;13.95;3.45;;;38.60;56.70;;;;;;5066417;28;20021;-81
2022/08/25 09:25:47;;;;;;;23.52;5.22;;;38.40;59.10;;;;;;5066920;28;20027;-84
2022/08/25 09:28:36;;;;;;;29.52;3.85;;;38.70;58.00;;;;;;5089952;28;20031;-83
2022/08/25 09:31:35;;;;;;;15.38;3.83;;;38.70;57.20;;;;;;5066359;28;20508;-83
2022/08/25 09:34:06;;;;;;;21.38;3.88;;;38.50;58.00;;;;;;5068552;28;20044;-84
2022/08/25 09:36:33;;;;;;;19.02;4.20;;;38.50;58.50;;;;;;5069237;28;20047;-83
2022/08/25 09:39:00;;;;;;;14.52;3.67;;;38.70;59.10;;;;;;5068421;28;20069;-83
2022/08/25 09:41:43;;;;;;;20.45;3.92;;;38.60;58.70;;;;;;5069437;28;20541;-83
2022/08/25 09:44:23;;;;;;;24.75;4.25;;;38.90;57.70;;;;;;5070439;28;20033;-82
2022/08/25 09:47:00;;;;;;;16.85;4.10;;;39.00;57.70;;;;;;5068267;28;20082;-83
2022/08/25 09:49:42;;;;;;;30.92;4.15;;;38.90;57.80;;;;;;5068968;28;20043;-83
2022/08/25 09:52:36;;;;;;;19.83;3.50;;;39.00;57.50;;;;;;5070275;28;20025;-82
2022/08/25 09:55:12;;;;;;;23.70;4.47;;;38.60;56.30;;;;;;5062600;28;20032;-83
2022/08/25 09:57:54;;;;;;;22.55;4.03;;;38.90;57.30;;;;;;5069092;28;20408;-83
2022/08/25 10:00:27;;;;;;;18.52;3.78;;;39.00;57.10;;;;;;5068586;28;20573;-82
2022/08/25 10:03:17;;;;;;;24.88;3.63;;;39.20;56.80;;;;;;5067760;28;20485;-83
2022/08/25 10:05:56;;;;;;;22.33;3.92;;;39.30;54.70;;;;;;5069006;28;20027;-82
2022/08/25 10:08:29;;;;;;;25.13;4.32;;;39.10;55.40;;;;;;5068169;28;20074;-82
2022/08/25 10:10:56;;;;;;;14.02;4.15;;;39.00;56.70;;;;;;5068440;28;20029;-82
2022/08/25 10:13:34;;;;;;;14.45;3.47;;;38.90;56.90;;;;;;5067785;28;20036;-82
2022/08/25 10:16:22;;;;;;;11.02;3.42;;;38.80;55.50;;;;;;5067696;28;20051;-83
2022/08/25 10:19:10;;;;;;;25.98;3.92;;;38.70;54.50;;;;;;5067709;28;20020;-82
2022/08/25 10:21:41;;;;;;;18.38;4.43;;;38.00;56.30;;;;;;5068302;28;20080;-82
2022/08/25 10:24:12;;;;;;;17.00;4.13;;;37.30;57.40;;;;;;5070138;28;20028;-82
2022/08/25 10:27:03;;;;;;;17.88;4.55;;;36.90;58.20;;;;;;5068047;28;20503;-83
2022/08/25 10:29:54;;;;;;;19.23;3.40;;;36.50;57.80;;;;;;5068730;28;20399;-82
2022/08/25 10:32:59;;;;;;;15.82;3.95;;;36.00;59.10;;;;;;5068554;28;20500;-83
2022/08/25 10:35:52;;;;;;;18.80;3.35;;;35.60;60.60;;;;;;5057554;28;20119;-83
2022/08/25 10:38:34;;;;;;;18.92;3.65;;;35.40;61.30;;;;;;5067281;28;20028;-82
2022/08/25 10:41:15;;;;;;;17.52;3.58;;;35.20;60.00;;;;;;5070291;28;20289;-83
2022/08/25 10:44:03;;;;;;;18.52;4.38;;;34.80;57.70;;;;;;5069194;28;20477;-82
2022/08/25 10:46:44;;;;;;;25.05;4.43;;;34.60;57.90;;;;;;5068314;28;20024;-82
2022/08/25 10:49:18;;;;;;;27.08;3.20;;;34.10;61.60;;;;;;5069292;28;20651;-83
2022/08/25 10:51:56;;;;;;;19.25;3.55;;;33.90;63.10;;;;;;5067738;28;20405;-81
2022/08/25 10:54:43;;;;;;;17.40;4.05;;;33.80;64.30;;;;;;5068746;28;20077;-84
2022/08/25 10:57:21;;;;;;;19.08;3.55;;;33.70;64.80;;;;;;5067507;28;20040;-83
2022/08/25 11:00:10;;;;;;;19.42;4.05;;;33.60;64.70;;;;;;5068358;28;20024;-83
2022/08/25 11:02:38;;;;;;;22.58;4.65;;;33.40;64.70;;;;;;5068286;28;20033;-84
2022/08/25 11:05:18;;;;;;;21.70;3.55;;;33.30;65.10;;;;;;5069302;28;20017;-83
2022/08/25 11:07:49;;;;;;;18.73;3.53;;;33.30;66.60;;;;;;5067543;28;20028;-83
2022/08/25 11:10:32;;;;;;;30.42;3.58;;;33.30;65.20;;;;;;5067816;28;20170;-83
2022/08/25 11:13:03;;;;;;;19.38;3.55;;;33.30;66.30;;;;;;5067915;28;20029;-81
2022/08/25 11:15:41;;;;;;;17.63;3.17;;;33.40;65.30;;;;;;5067889;28;20536;-83
2022/08/25 11:18:11;;;;;;;15.30;3.67;;;33.50;66.40;;;;;;5067761;28;20031;-82
2022/08/25 11:20:59;;;;;;;18.80;4.80;;;33.50;65.30;;;;;;5067298;28;20082;-81
2022/08/25 11:23:40;;;;;;;22.92;4.20;;;33.50;64.70;;;;;;5068287;28;20028;-82
2022/08/25 11:26:16;;;;;;;33.92;4.47;;;33.30;61.10;;;;;;5068456;28;20039;-82
2022/08/25 11:29:02;;;;;;;20.35;3.85;;;32.90;61.10;;;;;;5067853;28;20020;-83
2022/08/25 11:31:29;;;;;;;31.80;3.30;;;32.60;61.80;;;;;;5067477;28;20049;-83
2022/08/25 11:33:56;;;;;;;34.15;4.35;;;32.50;62.10;;;;;;5069404;28;20028;-82
2022/08/25 11:36:34;;;;;;;22.00;3.85;;;32.30;62.80;;;;;;5067974;28;20040;-83
2022/08/25 11:39:46;;;;;;;19.80;4.28;;;32.30;64.20;;;;;;5067856;28;20024;-84
2022/08/25 11:42:30;;;;;;;21.92;3.50;;;32.50;63.60;;;;;;5066933;28;20569;-83
2022/08/25 11:45:35;;;;;;;19.92;3.20;;;32.30;64.20;;;;;;5082646;28;20032;-82
2022/08/25 11:48:07;;;;;;;26.83;4.60;;;32.40;64.80;;;;;;5089896;28;20053;-84
2022/08/25 11:50:35;;;;;;;31.15;4.47;;;32.40;63.30;;;;;;5069351;28;20064;-83
2022/08/25 11:53:10;;;;;;;20.30;3.65;;;32.50;64.40;;;;;;5066740;28;20029;-82
2022/08/25 11:55:36;;;;;;;34.03;4.40;;;32.40;62.60;;;;;;5051436;28;20501;-83
2022/08/25 11:58:14;;;;;;;20.38;3.65;;;32.50;63.70;;;;;;5048843;28;20163;-83
2022/08/25 12:00:41;;;;;;;25.90;3.75;;;32.60;63.20;;;;;;5049303;28;20025;-82
2022/08/25 12:03:35;;;;;;;26.85;4.45;;;32.50;64.20;;;;;;5049721;28;20029;-83
2022/08/25 12:06:28;;;;;;;28.38;3.65;;;32.60;64.10;;;;;;5048385;28;20057;-82
2022/08/25 12:08:53;;;;;;;18.92;3.53;;;32.60;63.20;;;;;;5052684;28;20081;-82
2022/08/25 12:11:38;;;;;;;21.95;3.92;;;32.50;64.00;;;;;;5069551;28;20432;-84
2022/08/25 12:14:13;;;;;;;27.17;3.72;;;32.50;64.10;;;;;;5067722;28;20401;-82
2022/08/25 12:16:50;;;;;;;20.48;3.85;;;32.70;62.60;;;;;;5069773;28;20044;-81
2022/08/25 12:19:34;;;;;;;22.58;5.13;;;32.60;61.70;;;;;;5087402;28;20059;-82
2022/08/25 12:22:03;;;;;;;25.80;4.07;;;32.60;63.20;;;;;;5087431;28;20488;-82
2022/08/25 12:25:02;;;;;;;26.20;4.07;;;32.70;64.00;;;;;;5088042;28;20114;-83
2022/08/25 12:27:53;;;;;;;40.40;4.65;;;32.80;62.00;;;;;;5047166;28;20029;-82
2022/08/25 12:30:27;;;;;;;13.15;3.33;;;32.70;61.70;;;;;;5046713;28;20068;-82
2022/08/25 12:33:15;;;;;;;20.75;4.22;;;32.70;61.80;;;;;;5067406;28;20127;-82
2022/08/25 12:35:50;;;;;;;31.77;4.13;;;32.70;61.50;;;;;;5067010;28;20032;-85
2022/08/25 12:38:48;;;;;;;22.08;4.97;;;32.70;62.90;;;;;;5067214;28;20040;-85
2022/08/25 12:41:18;;;;;;;14.95;3.35;;;32.70;61.70;;;;;;5066739;28;20032;-83
2022/08/25 12:43:50;;;;;;;24.20;4.45;;;32.70;62.50;;;;;;5067225;28;20081;-83
2022/08/25 12:46:18;;;;;;;27.52;3.22;;;32.90;65.40;;;;;;5067163;28;20622;-84
2022/08/25 12:49:09;;;;;;;25.35;3.72;;;33.00;65.40;;;;;;5068536;28;20021;-84
2022/08/25 12:51:34;;;;;;;20.90;3.95;;;33.30;64.90;;;;;;5067143;28;20028;-82
2022/08/25 12:54:11;;;;;;;25.10;4.38;;;33.30;61.90;;;;;;5067198;28;20028;-83
2022/08/25 12:56:43;;;;;;;30.75;3.85;;;33.30;61.50;;;;;;5068614;28;20036;-84
2022/08/25 12:59:20;;;;;;;14.90;3.33;;;33.20;61.40;;;;;;5066870;28;20028;-83
2022/08/25 13:02:24;;;;;;;20.23;4.07;;;33.10;60.20;;;;;;5066724;28;20055;-83
2022/08/25 13:05:02;;;;;;;31.00;4.38;;;33.00;61.20;;;;;;5066884;28;20115;-82
2022/08/25 13:07:57;;;;;;;20.00;3.90;;;33.10;61.40;;;;;;5068421;28;20028;-83